Time;durP1;ratioP1;P1;durP2;ratioP2;P2;SDS_P1;SDS_P2;PMS_P1;PMS_P2;Temp;Humidity;BMP_temperature;BMP_pressure;BME280_temperature;BME280_humidity;BME280_pressure;Samples;Min_cycle;Max_cycle;Signal;HPM_P1;HPM_P2
2022/06/16 00:00:51;;;;;;;;;13.00;12.75;;;;;22.72;100.00;101361.72;6308769;22;45278;-84
2022/06/16 00:03:17;;;;;;;;;12.00;12.00;;;;;22.63;100.00;101355.47;6280111;22;44841;-85
2022/06/16 00:05:44;;;;;;;;;13.00;13.00;;;;;22.59;100.00;101343.25;6286743;22;44804;-84
2022/06/16 00:08:12;;;;;;;;;15.20;12.80;;;;;22.52;100.00;101353.88;6280793;22;46680;-85
2022/06/16 00:11:16;;;;;;;;;15.40;13.60;;;;;22.45;100.00;101350.16;6306431;22;44567;-84
2022/06/16 00:13:28;;;;;;;;;15.80;14.40;;;;;22.45;100.00;101362.84;6306262;22;44738;-83
2022/06/16 00:15:53;;;;;;;;;10.80;10.80;;;;;22.39;100.00;101358.97;6306464;22;45445;-83
2022/06/16 00:18:19;;;;;;;;;13.00;12.75;;;;;22.35;100.00;101357.59;6306242;22;45356;-84
2022/06/16 00:20:45;;;;;;;;;12.00;12.00;;;;;22.27;100.00;101371.09;6278603;22;44783;-84
2022/06/16 00:23:10;;;;;;;;;18.25;13.25;;;;;22.13;100.00;101363.59;6283540;22;44784;-83
2022/06/16 00:25:35;;;;;;;;;13.25;12.00;;;;;22.15;100.00;101367.84;6287483;22;44829;-83
2022/06/16 00:28:01;;;;;;;;;10.00;10.00;;;;;22.07;100.00;101362.34;6287946;22;45641;-83
2022/06/16 00:30:26;;;;;;;;;6.00;5.50;;;;;22.02;100.00;101368.25;6311019;22;45146;-84
2022/06/16 00:32:51;;;;;;;;;15.50;15.50;;;;;22.01;100.00;101371.97;6314874;22;44669;-84
2022/06/16 00:35:17;;;;;;;;;12.25;9.25;;;;;21.98;100.00;101387.66;6310585;22;45280;-84
2022/06/16 00:37:42;;;;;;;;;7.50;7.50;;;;;21.98;100.00;101364.16;6313162;22;45224;-83
2022/06/16 00:40:09;;;;;;;;;11.75;10.25;;;;;21.89;100.00;101378.66;6312839;22;44784;-82
2022/06/16 00:42:34;;;;;;;;;10.20;10.20;;;;;21.83;100.00;101384.72;6309583;22;45146;-83
2022/06/16 00:45:00;;;;;;;;;14.50;12.00;;;;;21.76;100.00;101368.28;6304680;22;45309;-84
2022/06/16 00:47:29;;;;;;;;;10.00;8.25;;;;;21.84;100.00;101388.25;6307302;22;45513;-84
2022/06/16 00:49:58;;;;;;;;;12.80;12.80;;;;;21.76;100.00;101394.50;6311591;22;44632;-83
2022/06/16 00:52:31;;;;;;;;;11.80;11.80;;;;;21.70;100.00;101393.25;6306889;22;45135;-83
2022/06/16 00:55:02;;;;;;;;;8.25;8.25;;;;;21.68;100.00;101400.69;6279143;22;44796;-83
2022/06/16 00:57:37;;;;;;;;;14.80;13.20;;;;;21.62;100.00;101404.03;6311213;22;45089;-84
2022/06/16 01:00:15;;;;;;;;;15.00;11.00;;;;;21.60;100.00;101403.31;6281716;22;44790;-83
2022/06/16 01:02:41;;;;;;;;;12.50;12.50;;;;;21.53;100.00;101405.81;6277662;22;45381;-83
2022/06/16 01:05:06;;;;;;;;;18.50;14.50;;;;;21.43;100.00;101406.94;6278674;22;45158;-84
2022/06/16 01:07:36;;;;;;;;;16.25;14.50;;;;;21.45;100.00;101413.00;6306876;22;45296;-86
2022/06/16 01:10:03;;;;;;;;;14.00;12.00;;;;;21.44;100.00;101414.03;6280269;22;44728;-87
2022/06/16 01:15:44;;;;;;;;;19.25;15.25;;;;;21.40;100.00;101420.75;6306935;22;44660;-86
2022/06/16 01:18:29;;;;;;;;;15.40;15.00;;;;;21.35;100.00;101417.66;6321462;22;45012;-86
2022/06/16 01:21:21;;;;;;;;;16.00;15.80;;;;;21.34;100.00;101427.63;6321254;22;44629;-85
2022/06/16 01:24:20;;;;;;;;;16.80;13.20;;;;;21.33;100.00;101423.22;6286995;22;44900;-85
2022/06/16 01:26:55;;;;;;;;;14.25;13.75;;;;;21.26;100.00;101431.06;6326248;22;44781;-85
2022/06/16 01:30:00;;;;;;;;;10.00;10.00;;;;;21.24;100.00;101434.94;6328897;22;45204;-85
2022/06/16 01:32:42;;;;;;;;;16.80;16.80;;;;;21.19;100.00;101432.69;6327448;22;45218;-84
2022/06/16 01:35:36;;;;;;;;;22.60;17.00;;;;;21.06;100.00;101426.84;6287622;22;44707;-87
2022/06/16 01:38:22;;;;;;;;;20.00;16.50;;;;;21.02;100.00;101425.44;6313757;22;45260;-87
2022/06/16 01:41:02;;;;;;;;;19.75;17.50;;;;;21.02;100.00;101436.25;6311736;22;46479;-87
2022/06/16 01:43:35;;;;;;;;;17.40;15.60;;;;;20.90;100.00;101432.94;6312737;22;44782;-87
2022/06/16 01:46:09;;;;;;;;;15.50;14.00;;;;;20.88;100.00;101458.38;6311996;22;44739;-86
2022/06/16 01:48:36;;;;;;;;;14.00;11.50;;;;;20.79;100.00;101441.22;6310852;22;45142;-87
2022/06/16 01:51:09;;;;;;;;;16.75;16.75;;;;;20.71;100.00;101431.19;6311765;22;45415;-86
2022/06/16 01:53:41;;;;;;;;;21.40;18.80;;;;;20.76;100.00;101455.91;6316074;22;44792;-87
2022/06/16 01:56:16;;;;;;;;;18.75;15.50;;;;;20.67;100.00;101464.06;6310434;22;44682;-85
2022/06/16 01:58:47;;;;;;;;;20.00;20.00;;;;;20.57;100.00;101453.31;6315564;22;45389;-85
2022/06/16 02:01:16;;;;;;;;;19.00;16.25;;;;;20.62;100.00;101464.50;6316935;22;45234;-85
2022/06/16 02:03:51;;;;;;;;;17.00;16.60;;;;;20.63;100.00;101462.66;6281645;22;45353;-85
2022/06/16 02:06:23;;;;;;;;;20.75;17.50;;;;;20.57;100.00;101464.09;6309978;22;44749;-85
2022/06/16 02:09:01;;;;;;;;;19.00;17.50;;;;;20.61;100.00;101467.38;6308068;22;44701;-85
2022/06/16 02:11:33;;;;;;;;;18.75;18.75;;;;;20.60;100.00;101471.03;6307381;22;45443;-86
2022/06/16 02:14:26;;;;;;;;;17.20;16.00;;;;;20.60;100.00;101471.91;6308035;22;45297;-84
2022/06/16 02:16:53;;;;;;;;;16.50;16.50;;;;;20.59;100.00;101474.75;6308573;22;45161;-84
2022/06/16 02:19:22;;;;;;;;;18.25;17.25;;;;;20.61;100.00;101473.63;6312851;22;44935;-83
2022/06/16 02:21:50;;;;;;;;;16.80;16.80;;;;;20.62;100.00;101477.16;6310544;22;45233;-85
2022/06/16 02:24:19;;;;;;;;;18.40;13.60;;;;;20.57;100.00;101474.91;6280460;22;45087;-83
2022/06/16 02:26:46;;;;;;;;;19.00;17.40;;;;;20.57;100.00;101472.22;6307552;22;44698;-84
2022/06/16 02:29:29;;;;;;;;;21.50;20.50;;;;;20.58;100.00;101467.66;6285048;22;45328;-84
2022/06/16 02:32:19;;;;;;;;;20.00;16.75;;;;;20.53;100.00;101465.41;6307343;22;45025;-85
2022/06/16 02:35:05;;;;;;;;;20.40;20.40;;;;;20.56;100.00;101475.06;6307339;22;45366;-84
2022/06/16 02:37:51;;;;;;;;;18.80;16.60;;;;;20.52;100.00;101471.81;6308524;22;45239;-84
2022/06/16 02:40:50;;;;;;;;;23.75;23.75;;;;;20.49;100.00;101482.88;6307685;22;44830;-84
2022/06/16 02:43:46;;;;;;;;;21.75;21.25;;;;;20.47;100.00;101482.19;6310259;22;45344;-85
2022/06/16 02:46:21;;;;;;;;;21.40;20.20;;;;;20.48;100.00;101492.84;6315375;22;44769;-84
2022/06/16 02:49:18;;;;;;;;;18.00;17.25;;;;;20.48;100.00;101484.75;6323622;22;44729;-83
2022/06/16 02:51:58;;;;;;;;;20.75;19.50;;;;;20.48;100.00;101484.75;6297300;22;45300;-84
2022/06/16 02:54:35;;;;;;;;;20.75;19.25;;;;;20.46;100.00;101466.97;6299447;22;45663;-83
2022/06/16 02:57:15;;;;;;;;;19.80;19.80;;;;;20.45;100.00;101468.84;6292921;22;44736;-84
2022/06/16 02:59:53;;;;;;;;;18.25;18.25;;;;;20.44;100.00;101477.06;6310987;22;44768;-84
2022/06/16 03:02:22;;;;;;;;;21.00;21.00;;;;;20.42;100.00;101479.91;6309850;22;45521;-85
2022/06/16 03:04:50;;;;;;;;;21.00;19.25;;;;;20.35;100.00;101488.75;6308542;22;45317;-84
2022/06/16 03:07:17;;;;;;;;;21.80;18.80;;;;;20.38;100.00;101491.16;6310804;22;45099;-84
2022/06/16 03:09:42;;;;;;;;;25.00;24.00;;;;;20.32;100.00;101502.56;6311408;22;45111;-85
2022/06/16 03:12:10;;;;;;;;;29.25;21.75;;;;;20.29;100.00;101498.28;6309304;22;44856;-83
2022/06/16 03:14:35;;;;;;;;;27.75;22.25;;;;;20.26;100.00;101506.69;6315138;22;45332;-85
2022/06/16 03:17:02;;;;;;;;;19.25;19.25;;;;;20.19;100.00;101501.00;6313822;22;44818;-90
2022/06/16 03:19:27;;;;;;;;;22.50;21.25;;;;;20.22;100.00;101494.50;6315358;22;45302;-90
2022/06/16 03:21:54;;;;;;;;;19.50;18.50;;;;;20.24;100.00;101497.88;6290262;22;45427;-87
2022/06/16 03:24:20;;;;;;;;;25.50;23.25;;;;;20.22;100.00;101510.69;6294458;22;45317;-87
2022/06/16 03:26:46;;;;;;;;;22.50;22.50;;;;;20.19;100.00;101510.97;6293982;22;44771;-88
2022/06/16 03:29:11;;;;;;;;;23.75;17.25;;;;;20.21;100.00;101508.94;6313917;22;45209;-90
2022/06/16 03:31:36;;;;;;;;;19.00;19.00;;;;;20.14;100.00;101503.31;6291800;22;44781;-90
2022/06/16 03:34:02;;;;;;;;;21.75;19.75;;;;;20.19;100.00;101508.25;6296370;22;45342;-88
2022/06/16 03:36:27;;;;;;;;;29.00;24.75;;;;;20.17;100.00;101508.41;6323843;22;45150;-90
2022/06/16 03:38:53;;;;;;;;;23.50;21.75;;;;;20.18;100.00;101509.25;6289728;22;44861;-88
2022/06/16 03:41:18;;;;;;;;;23.25;22.50;;;;;20.15;100.00;101506.84;6285962;22;45254;-90
2022/06/16 03:43:43;;;;;;;;;27.00;22.50;;;;;20.13;100.00;101517.78;6308532;22;45111;-84
2022/06/16 03:46:11;;;;;;;;;24.00;22.25;;;;;20.14;100.00;101514.09;6307284;22;45179;-84
2022/06/16 03:48:38;;;;;;;;;23.25;20.75;;;;;20.15;100.00;101509.53;6308056;22;44697;-84
2022/06/16 03:51:05;;;;;;;;;24.00;23.00;;;;;20.14;100.00;101503.31;6311340;22;45293;-84
2022/06/16 03:53:32;;;;;;;;;20.50;20.50;;;;;20.13;100.00;101498.06;6278588;22;46750;-84
2022/06/16 03:55:57;;;;;;;;;19.00;16.40;;;;;20.19;100.00;101511.81;6306956;22;45126;-85
2022/06/16 03:58:23;;;;;;;;;22.50;19.00;;;;;20.15;100.00;101515.78;6278786;22;45419;-85
2022/06/16 04:00:48;;;;;;;;;24.75;22.00;;;;;20.17;100.00;101515.66;6279061;22;44958;-84
2022/06/16 04:05:58;;;;;;;;;19.40;17.00;;;;;20.23;100.00;101539.34;6308870;22;45174;-84
2022/06/16 04:08:24;;;;;;;;;17.25;17.25;;;;;20.26;100.00;101531.81;6285158;22;44769;-84
2022/06/16 04:10:51;;;;;;;;;23.00;22.50;;;;;20.27;100.00;101533.53;6309919;22;45340;-85
2022/06/16 04:13:16;;;;;;;;;19.75;19.50;;;;;20.31;100.00;101533.22;6303897;22;46933;-85
2022/06/16 04:15:42;;;;;;;;;25.50;20.25;;;;;20.33;100.00;101534.78;6307284;22;45343;-84
2022/06/16 04:18:07;;;;;;;;;18.25;18.25;;;;;20.37;100.00;101538.03;6278240;22;44863;-84
2022/06/16 04:20:34;;;;;;;;;17.00;14.50;;;;;20.42;100.00;101524.94;6310566;22;45405;-84
2022/06/16 04:23:00;;;;;;;;;19.50;17.25;;;;;20.39;100.00;101518.00;6309922;22;44945;-84
2022/06/16 04:25:32;;;;;;;;;20.50;20.00;;;;;20.37;100.00;101524.53;6310399;22;45433;-91
2022/06/16 04:28:00;;;;;;;;;16.00;15.00;;;;;20.41;100.00;101537.59;6286108;22;44655;-88
2022/06/16 04:30:27;;;;;;;;;22.00;18.75;;;;;20.43;100.00;101537.44;6316894;22;44746;-89
2022/06/16 04:32:52;;;;;;;;;17.25;17.25;;;;;20.52;100.00;101536.59;6290883;22;45419;-91
2022/06/16 04:35:18;;;;;;;;;18.00;13.75;;;;;20.62;100.00;101542.81;6318647;22;44559;-89
2022/06/16 04:37:43;;;;;;;;;21.00;19.75;;;;;20.66;100.00;101540.66;6314174;22;44559;-89
2022/06/16 04:40:10;;;;;;;;;21.00;19.00;;;;;20.67;100.00;101534.25;6283564;22;44943;-89
2022/06/16 04:42:37;;;;;;;;;24.75;21.00;;;;;20.69;100.00;101543.06;6286445;22;45461;-90
2022/06/16 04:45:03;;;;;;;;;23.20;20.60;;;;;20.71;100.00;101546.47;6289625;22;44765;-89
2022/06/16 04:47:29;;;;;;;;;25.50;22.00;;;;;20.82;100.00;101548.13;6316070;22;44677;-84
2022/06/16 04:49:54;;;;;;;;;22.75;20.75;;;;;20.81;100.00;101543.72;6291548;22;44882;-84
2022/06/16 04:52:20;;;;;;;;;20.25;18.50;;;;;20.94;100.00;101547.78;6315234;22;44906;-84
2022/06/16 04:54:46;;;;;;;;;16.50;16.25;;;;;21.02;100.00;101537.06;6288019;22;44681;-89
2022/06/16 04:57:13;;;;;;;;;24.25;23.25;;;;;21.22;100.00;101563.94;6314903;22;44560;-90
2022/06/16 04:59:39;;;;;;;;;22.00;21.75;;;;;21.29;100.00;101562.38;6286698;22;44870;-89
2022/06/16 05:02:04;;;;;;;;;20.00;18.50;;;;;21.42;100.00;101575.53;6314252;22;45166;-83
2022/06/16 05:04:30;;;;;;;;;23.25;19.50;;;;;21.42;100.00;101573.69;6315427;22;44720;-85
2022/06/16 05:06:56;;;;;;;;;21.00;19.75;;;;;21.40;100.00;101567.56;6306855;22;45418;-84
2022/06/16 05:09:22;;;;;;;;;25.25;24.00;;;;;21.32;100.00;101574.75;6306935;22;44760;-84
2022/06/16 05:11:48;;;;;;;;;22.50;18.25;;;;;21.48;100.00;101583.88;6306547;22;45447;-86
2022/06/16 05:14:13;;;;;;;;;20.75;19.75;;;;;21.61;100.00;101577.25;6307865;22;44740;-86
2022/06/16 05:16:39;;;;;;;;;21.75;20.50;;;;;21.67;100.00;101584.75;6307655;22;45289;-85
2022/06/16 05:19:05;;;;;;;;;20.75;19.00;;;;;21.66;100.00;101599.25;6308358;22;45292;-85
2022/06/16 05:21:30;;;;;;;;;22.75;22.00;;;;;21.56;100.00;101599.34;6309796;22;45505;-85
2022/06/16 05:23:56;;;;;;;;;19.75;19.50;;;;;21.72;100.00;101601.38;6309730;22;44728;-85
2022/06/16 05:26:21;;;;;;;;;23.00;23.00;;;;;21.62;100.00;101597.88;6309590;22;44576;-85
2022/06/16 05:28:46;;;;;;;;;21.00;20.00;;;;;21.72;100.00;101615.75;6309199;22;44857;-85
2022/06/16 05:31:12;;;;;;;;;22.75;22.50;;;;;21.68;100.00;101625.16;6311102;22;45230;-86
2022/06/16 05:33:37;;;;;;;;;29.75;22.00;;;;;21.60;100.00;101626.94;6311745;22;45075;-85
2022/06/16 05:36:06;;;;;;;;;16.75;16.75;;;;;21.50;100.00;101632.41;6311122;22;44653;-90
2022/06/16 05:38:32;;;;;;;;;23.25;23.25;;;;;21.32;100.00;101635.06;6287901;22;44802;-90
2022/06/16 05:41:01;;;;;;;;;27.00;25.50;;;;;21.15;100.00;101642.09;6314886;22;44924;-89
2022/06/16 05:43:27;;;;;;;;;16.40;16.40;;;;;21.17;100.00;101644.63;6311886;22;45099;-90
2022/06/16 05:45:53;;;;;;;;;21.00;20.75;;;;;21.13;100.00;101659.44;6313286;22;45161;-89
2022/06/16 05:48:19;;;;;;;;;21.25;18.75;;;;;21.26;100.00;101654.56;6313895;22;44645;-90
2022/06/16 05:50:44;;;;;;;;;19.50;19.25;;;;;21.56;100.00;101653.41;6324448;22;44942;-89
2022/06/16 05:53:10;;;;;;;;;22.50;19.25;;;;;21.80;100.00;101644.72;6294580;22;44847;-83
2022/06/16 05:55:36;;;;;;;;;23.40;21.80;;;;;21.99;100.00;101652.69;6316577;22;45307;-86
2022/06/16 05:58:01;;;;;;;;;22.25;21.50;;;;;22.21;100.00;101645.13;6310827;22;45400;-85
2022/06/16 06:00:28;;;;;;;;;21.00;21.00;;;;;22.04;100.00;101658.47;6315579;22;44959;-85
2022/06/16 06:02:57;;;;;;;;;21.80;18.00;;;;;22.15;100.00;101648.47;6311832;22;44756;-83
2022/06/16 06:05:22;;;;;;;;;20.00;18.50;;;;;22.32;100.00;101656.56;6305930;22;44812;-85
2022/06/16 06:18:43;;;;;;;;;21.25;17.50;;;;;22.62;100.00;101667.94;6326625;22;44776;-86
2022/06/16 06:21:09;;;;;;;;;28.25;23.50;;;;;22.62;100.00;101677.94;6320169;22;45112;-84
2022/06/16 06:23:34;;;;;;;;;19.50;19.25;;;;;22.59;100.00;101671.00;6317543;22;44747;-83
2022/06/16 06:25:59;;;;;;;;;25.00;19.75;;;;;22.75;100.00;101679.22;6317378;22;45088;-85
2022/06/16 06:28:25;;;;;;;;;22.00;22.00;;;;;22.83;100.00;101682.00;6293233;22;45386;-84
2022/06/16 06:30:50;;;;;;;;;24.00;22.50;;;;;23.01;100.00;101689.22;6290325;22;44996;-86
2022/06/16 06:33:16;;;;;;;;;27.50;23.25;;;;;23.07;100.00;101688.59;6300646;22;44586;-87
2022/06/16 06:35:41;;;;;;;;;20.25;20.25;;;;;23.12;100.00;101686.25;6325441;22;44614;-83
2022/06/16 06:38:07;;;;;;;;;30.00;27.00;;;;;23.38;100.00;101698.91;6319816;22;44631;-85
2022/06/16 06:40:35;;;;;;;;;25.00;21.25;;;;;23.66;100.00;101694.13;6290630;22;46372;-85
2022/06/16 06:43:00;;;;;;;;;23.60;21.20;;;;;23.51;100.00;101699.31;6319477;22;45249;-83
2022/06/16 06:45:26;;;;;;;;;21.75;18.75;;;;;23.71;100.00;101698.06;6316928;22;44865;-85
2022/06/16 06:47:53;;;;;;;;;28.25;25.00;;;;;23.87;100.00;101713.53;6315759;22;44765;-85
2022/06/16 06:50:26;;;;;;;;;28.00;24.50;;;;;23.55;100.00;101722.38;6309604;22;45362;-85
2022/06/16 06:52:53;;;;;;;;;25.60;22.20;;;;;23.49;100.00;101720.31;6281182;22;45283;-84
2022/06/16 06:55:20;;;;;;;;;30.50;28.00;;;;;23.62;100.00;101711.72;6313269;22;44840;-86
2022/06/16 06:57:46;;;;;;;;;28.00;27.00;;;;;23.74;100.00;101718.56;6282767;22;45218;-85
2022/06/16 07:00:16;;;;;;;;;19.25;17.00;;;;;23.83;100.00;101721.13;6309923;22;45084;-86
2022/06/16 07:02:42;;;;;;;;;22.50;22.50;;;;;23.20;100.00;101716.09;6307971;22;44726;-85
2022/06/16 07:05:07;;;;;;;;;24.25;21.75;;;;;23.23;100.00;101720.38;6309180;22;44743;-85
2022/06/16 07:07:36;;;;;;;;;22.75;20.25;;;;;23.21;100.00;101720.53;6308836;22;44939;-84
2022/06/16 07:10:02;;;;;;;;;28.75;25.00;;;;;23.26;100.00;101725.47;6281680;22;47081;-88
2022/06/16 07:12:28;;;;;;;;;22.20;21.40;;;;;23.70;100.00;101728.91;6308046;22;44768;-85
2022/06/16 07:14:53;;;;;;;;;21.50;19.25;;;;;23.90;95.51;101734.06;6307543;22;44598;-84
2022/06/16 07:17:23;;;;;;;;;22.75;20.25;;;;;23.96;95.15;101738.81;6310612;22;44745;-84
2022/06/16 07:19:48;;;;;;;;;23.75;21.75;;;;;24.06;95.59;101736.81;6310317;22;45344;-87
2022/06/16 07:22:14;;;;;;;;;29.25;24.00;;;;;24.22;91.72;101746.84;6311149;22;44777;-87
2022/06/16 07:24:39;;;;;;;;;26.25;24.50;;;;;24.31;89.94;101749.41;6285584;22;45252;-88
2022/06/16 07:27:07;;;;;;;;;19.50;18.50;;;;;24.05;92.02;101745.97;6318092;22;44789;-89
2022/06/16 07:29:33;;;;;;;;;17.50;16.00;;;;;24.09;90.78;101760.91;6284419;22;47158;-88
2022/06/16 07:31:58;;;;;;;;;21.40;19.40;;;;;24.01;91.34;101755.47;6315841;22;44611;-89
2022/06/16 07:34:25;;;;;;;;;27.50;21.75;;;;;24.17;90.62;101765.50;6314663;22;44710;-87
2022/06/16 07:36:51;;;;;;;;;21.25;18.75;;;;;24.52;91.47;101761.69;6314307;22;44902;-88
2022/06/16 07:39:16;;;;;;;;;20.50;18.00;;;;;24.69;87.62;101767.97;6312430;22;45262;-88
2022/06/16 07:41:42;;;;;;;;;17.75;17.75;;;;;24.73;86.41;101766.63;6311518;22;44740;-90
2022/06/16 07:44:13;;;;;;;;;13.75;11.50;;;;;24.74;84.84;101765.59;6312931;22;44724;-89
2022/06/16 07:46:42;;;;;;;;;24.25;24.25;;;;;24.78;83.15;101767.81;6313611;22;44572;-89
2022/06/16 07:49:11;;;;;;;;;19.00;17.00;;;;;24.94;84.06;101760.66;6314066;22;45012;-90
2022/06/16 07:51:37;;;;;;;;;17.80;17.80;;;;;25.09;84.55;101764.38;6287623;22;44650;-90
2022/06/16 07:54:03;;;;;;;;;15.25;15.25;;;;;25.23;83.56;101760.97;6293215;22;44607;-85
2022/06/16 07:56:29;;;;;;;;;16.25;15.50;;;;;25.24;80.74;101759.97;6316695;22;44601;-86
2022/06/16 07:58:55;;;;;;;;;18.00;16.00;;;;;25.19;78.78;101764.19;6310528;22;45492;-85
2022/06/16 08:01:21;;;;;;;;;12.75;12.75;;;;;25.07;71.59;101764.56;6311125;22;44670;-86
2022/06/16 08:03:46;;;;;;;;;14.50;14.25;;;;;25.19;73.78;101754.19;6316870;22;44787;-85
2022/06/16 08:06:16;;;;;;;;;19.50;15.50;;;;;25.23;69.60;101760.09;6293120;22;44920;-85
2022/06/16 08:08:43;;;;;;;;;11.75;9.75;;;;;25.19;71.47;101770.50;6297533;22;46685;-89
2022/06/16 08:12:03;;;;;;;;;18.00;16.60;;;;;25.09;71.22;101769.81;6329680;22;44585;-90
2022/06/16 08:13:55;;;;;;;;;10.60;10.60;;;;;25.13;66.49;101776.63;6328811;22;44619;-89
2022/06/16 08:16:21;;;;;;;;;13.25;12.00;;;;;25.02;63.61;101775.09;6327106;22;44738;-89
2022/06/16 08:18:47;;;;;;;;;10.40;10.40;;;;;25.13;61.95;101776.63;6293784;22;45236;-90
2022/06/16 08:21:12;;;;;;;;;12.25;10.25;;;;;25.23;60.68;101773.72;6292664;22;44709;-88
2022/06/16 08:23:38;;;;;;;;;14.75;10.50;;;;;25.41;59.33;101763.47;6326767;22;44652;-91
2022/06/16 08:26:04;;;;;;;;;13.00;11.50;;;;;25.69;59.71;101774.75;6292848;22;44801;-90
2022/06/16 08:28:32;;;;;;;;;14.60;12.00;;;;;25.94;57.66;101775.53;6292243;22;47106;-89
2022/06/16 08:30:57;;;;;;;;;12.80;12.80;;;;;25.93;58.66;101764.81;6288772;22;44579;-90
2022/06/16 08:33:23;;;;;;;;;10.75;10.25;;;;;25.76;57.32;101778.50;6291110;22;44634;-90
2022/06/16 08:35:48;;;;;;;;;12.00;11.00;;;;;25.89;56.93;101773.34;6291435;22;44891;-87
2022/06/16 08:38:14;;;;;;;;;13.25;11.50;;;;;26.09;57.05;101771.00;6289959;22;44880;-85
2022/06/16 08:40:45;;;;;;;;;13.25;13.25;;;;;26.07;55.70;101772.22;6311748;22;44716;-85
2022/06/16 08:43:25;;;;;;;;;12.20;10.80;;;;;26.03;56.39;101763.56;6309907;22;44758;-87
2022/06/16 08:45:59;;;;;;;;;14.00;13.20;;;;;25.94;56.09;101766.50;6311552;22;44689;-91
2022/06/16 08:48:40;;;;;;;;;8.80;8.80;;;;;26.26;55.88;101770.94;6287734;22;45390;-92
2022/06/16 08:51:45;;;;;;;;;15.00;12.80;;;;;26.13;53.75;101779.69;6319220;22;44641;-88
2022/06/16 08:54:24;;;;;;;;;12.20;10.20;;;;;26.14;53.63;101782.22;6315864;22;44770;-88
2022/06/16 08:56:52;;;;;;;;;13.40;9.80;;;;;26.23;51.59;101795.78;6286047;22;44872;-87
2022/06/16 08:59:58;;;;;;;;;12.00;11.60;;;;;26.15;49.98;101789.34;6292415;22;45266;-86
2022/06/16 09:02:58;;;;;;;;;7.80;7.80;;;;;25.86;50.25;101779.13;6174116;23;44708;-87
2022/06/16 09:05:39;;;;;;;;;10.80;9.00;;;;;25.83;51.31;101762.31;6112746;23;44673;-88
2022/06/16 09:08:30;;;;;;;;;9.20;9.20;;;;;26.29;49.02;101779.56;6127885;23;44836;-91
2022/06/16 09:11:10;;;;;;;;;9.40;7.20;;;;;26.44;48.26;101787.84;6132393;23;45240;-90
2022/06/16 09:13:57;;;;;;;;;8.20;6.00;;;;;26.49;48.31;101770.94;6131548;23;44685;-91
2022/06/16 09:16:31;;;;;;;;;13.20;10.20;;;;;26.56;47.56;101780.09;6131346;23;44609;-91
2022/06/16 09:19:14;;;;;;;;;6.40;5.00;;;;;26.68;49.96;101772.31;6114305;23;44823;-91
2022/06/16 09:21:55;;;;;;;;;9.80;8.80;;;;;26.73;47.06;101773.47;6133036;23;45041;-89
2022/06/16 09:24:44;;;;;;;;;12.20;11.40;;;;;26.90;46.27;101785.09;6128031;23;44733;-91
2022/06/16 09:27:22;;;;;;;;;11.20;9.40;;;;;27.06;46.19;101784.06;6129451;23;44798;-91
2022/06/16 09:30:01;;;;;;;;;8.20;7.80;;;;;27.19;46.87;101778.03;6107189;23;44931;-89
2022/06/16 09:33:01;;;;;;;;;10.40;9.80;;;;;27.24;44.69;101789.22;6133925;23;45013;-91
2022/06/16 09:35:43;;;;;;;;;8.60;8.60;;;;;27.31;44.38;101787.44;6128760;23;44686;-89
2022/06/16 09:38:24;;;;;;;;;9.20;9.20;;;;;27.47;45.08;101786.41;6163287;23;44703;-88
2022/06/16 09:44:16;;;;;;;;;10.60;10.40;;;;;27.58;46.51;101764.94;6162123;23;44924;-89
2022/06/16 09:46:48;;;;;;;;;11.20;8.00;;;;;27.38;42.01;101783.78;6167791;23;44729;-92
2022/06/16 09:49:24;;;;;;;;;9.00;8.00;;;;;27.29;44.38;101773.97;6163688;23;44633;-89
2022/06/16 09:52:12;;;;;;;;;11.60;8.60;;;;;27.42;43.98;101759.69;6158613;23;44697;-91
2022/06/16 09:54:49;;;;;;;;;7.40;7.20;;;;;27.39;42.63;101765.50;6156801;23;45338;-86
2022/06/16 09:57:35;;;;;;;;;12.80;9.60;;;;;27.45;42.91;101748.38;6153795;23;44786;-88
2022/06/16 10:00:22;;;;;;;;;11.40;10.00;;;;;27.40;40.44;101751.66;6154472;23;44645;-86
2022/06/16 10:03:29;;;;;;;;;9.80;8.20;;;;;27.21;42.04;101743.19;6155270;23;45203;-87
2022/06/16 10:06:22;;;;;;;;;6.80;6.80;;;;;27.27;41.70;101764.28;6155570;23;45280;-85
2022/06/16 10:09:18;;;;;;;;;8.00;6.60;;;;;27.32;42.53;101767.28;6155539;23;45296;-87
2022/06/16 10:12:02;;;;;;;;;9.80;9.20;;;;;27.51;42.43;101769.47;6163831;23;44648;-86
2022/06/16 10:14:44;;;;;;;;;8.60;8.60;;;;;27.70;43.71;101765.28;6170059;23;44886;-86
2022/06/16 10:17:14;;;;;;;;;8.00;7.80;;;;;27.87;41.51;101763.25;6207962;23;45034;-85
2022/06/16 10:19:44;;;;;;;;;7.60;7.00;;;;;27.91;40.06;101759.09;6208264;22;44745;-85
2022/06/16 10:22:13;;;;;;;;;8.60;8.60;;;;;27.73;39.62;101764.94;6238299;22;44730;-85
2022/06/16 10:24:46;;;;;;;;;10.20;9.20;;;;;27.79;40.05;101764.19;6256568;22;44783;-86
2022/06/16 10:27:15;;;;;;;;;9.40;7.80;;;;;27.88;40.65;101757.56;6259429;22;45018;-85
2022/06/16 10:29:55;;;;;;;;;9.80;9.80;;;;;27.87;40.65;101755.03;6257268;22;44774;-86
2022/06/16 10:32:38;;;;;;;;;10.00;9.00;;;;;27.81;39.33;101774.94;6253674;22;44717;-87
2022/06/16 10:35:05;;;;;;;;;10.60;8.00;;;;;27.76;37.83;101777.41;6247589;22;44785;-87
2022/06/16 10:37:31;;;;;;;;;8.00;8.00;;;;;27.71;38.35;101763.44;6246725;22;46100;-86
2022/06/16 10:40:37;;;;;;;;;9.00;9.00;;;;;27.76;36.48;101766.47;6249755;22;44639;-85
2022/06/16 10:43:12;;;;;;;;;11.80;10.80;;;;;27.62;37.14;101765.41;6166626;23;44667;-86
2022/06/16 10:45:39;;;;;;;;;11.00;9.20;;;;;27.79;39.00;101755.16;6167624;23;44690;-88
2022/06/16 10:48:07;;;;;;;;;6.20;6.00;;;;;27.73;38.24;101751.28;6157068;23;45348;-87
2022/06/16 10:50:45;;;;;;;;;10.00;8.00;;;;;27.86;37.44;101753.34;6128650;23;44850;-86
2022/06/16 10:53:34;;;;;;;;;5.20;4.80;;;;;27.79;37.18;101766.06;6103876;23;44668;-88
2022/06/16 10:56:21;;;;;;;;;4.00;4.00;;;;;27.75;36.46;101757.41;6128895;23;44820;-87
2022/06/16 10:59:00;;;;;;;;;11.20;9.00;;;;;28.02;38.38;101746.81;6130034;23;45094;-88
2022/06/16 11:01:36;;;;;;;;;8.60;7.80;;;;;28.28;39.50;101752.53;6131975;23;44663;-88
2022/06/16 11:04:10;;;;;;;;;7.40;7.00;;;;;28.01;37.12;101753.31;6134928;23;44718;-87
2022/06/16 11:06:40;;;;;;;;;8.40;7.00;;;;;28.09;36.74;101751.31;6117380;23;44796;-87
2022/06/16 11:09:08;;;;;;;;;9.00;7.80;;;;;28.29;37.53;101756.16;6141305;23;45174;-87
2022/06/16 11:11:42;;;;;;;;;11.40;10.00;;;;;28.34;36.71;101753.72;6140340;23;44883;-88
2022/06/16 11:14:17;;;;;;;;;8.40;8.40;;;;;28.35;36.47;101733.53;6132149;23;44734;-85
2022/06/16 11:16:49;;;;;;;;;8.80;8.20;;;;;28.75;37.62;101742.06;6169873;22;44876;-88
2022/06/16 11:19:26;;;;;;;;;11.80;11.00;;;;;28.82;35.61;101749.31;6286906;22;45330;-88
2022/06/16 11:21:53;;;;;;;;;9.60;7.60;;;;;28.78;35.37;101742.53;6287584;22;44709;-88
2022/06/16 11:24:45;;;;;;;;;7.60;6.80;;;;;28.88;36.31;101748.50;6283337;22;44719;-90
2022/06/16 11:27:15;;;;;;;;;11.80;11.80;;;;;29.00;37.03;101757.03;6254901;22;44849;-88
2022/06/16 11:29:40;;;;;;;;;7.80;7.80;;;;;29.01;36.88;101761.47;6263197;22;46748;-88
2022/06/16 11:32:15;;;;;;;;;15.00;11.00;;;;;29.05;36.75;101759.16;6294334;22;44630;-91
2022/06/16 11:34:42;;;;;;;;;8.80;8.60;;;;;29.17;37.32;101755.69;6271431;22;44705;-90
2022/06/16 11:37:25;;;;;;;;;8.20;8.20;;;;;29.15;36.60;101752.28;6270616;22;44798;-90
2022/06/16 11:39:54;;;;;;;;;8.40;7.00;;;;;29.23;36.68;101748.56;6272767;22;45270;-88
2022/06/16 11:42:35;;;;;;;;;9.60;9.20;;;;;29.30;35.81;101748.59;6300551;22;44851;-86
2022/06/16 11:45:19;;;;;;;;;8.00;7.20;;;;;29.33;36.56;101749.03;6300666;22;44595;-87
2022/06/16 11:47:57;;;;;;;;;9.00;9.00;;;;;29.37;36.46;101742.09;6272093;22;44870;-86